Time;durP1;ratioP1;P1;durP2;ratioP2;P2;SDS_P1;SDS_P2;PMS_P1;PMS_P2;Temp;Humidity;BMP_temperature;BMP_pressure;BME280_temperature;BME280_humidity;BME280_pressure;Samples;Min_cycle;Max_cycle;Signal;HPM_P1;HPM_P2
2022/06/04 00:00:26;;;;;;;17.57;6.03;;;;;;;;;;5054200;28;20436;-69
2022/06/04 00:02:54;;;;;;;19.60;6.80;;;;;;;;;;5053949;28;20506;-70
2022/06/04 00:05:24;;;;;;;18.50;6.40;;;;;;;;;;5055091;28;20447;-68
2022/06/04 00:07:52;;;;;;;16.60;5.83;;;;;;;;;;5053946;28;20452;-68
2022/06/04 00:15:51;;;;;;;18.00;5.57;;;;;;;;;;5054228;28;20451;-69
2022/06/04 00:18:19;;;;;;;17.70;5.00;;;;;;;;;;5053691;28;20937;-68
2022/06/04 00:20:50;;;;;;;17.57;5.50;;;;;;;;;;5053814;28;20444;-69
2022/06/04 00:23:17;;;;;;;17.23;5.77;;;;;;;;;;5053638;28;20495;-69
2022/06/04 00:25:47;;;;;;;17.90;5.70;;;;;;;;;;5053712;28;20448;-68
2022/06/04 00:28:15;;;;;;;18.37;6.47;;;;;;;;;;5053574;28;20452;-68
2022/06/04 00:30:43;;;;;;;20.17;6.30;;;;;;;;;;5053802;28;20859;-68
2022/06/04 00:33:11;;;;;;;18.50;6.50;;;;;;;;;;5053271;28;20440;-68
2022/06/04 00:35:38;;;;;;;19.60;5.40;;;;;;;;;;5053431;28;20440;-69
2022/06/04 00:38:09;;;;;;;18.10;5.80;;;;;;;;;;5052388;28;20892;-68
2022/06/04 00:40:40;;;;;;;17.17;5.10;;;;;;;;;;5053621;28;20857;-68
2022/06/04 00:43:08;;;;;;;16.30;5.57;;;;;;;;;;5053099;28;21012;-68
2022/06/04 00:45:59;;;;;;;20.40;5.83;;;;;;;;;;5053391;28;20448;-68
2022/06/04 00:48:28;;;;;;;16.73;5.40;;;;;;;;;;5053466;28;20448;-68
2022/06/04 00:50:55;;;;;;;17.97;6.47;;;;;;;;;;5052913;28;20884;-68
2022/06/04 00:53:25;;;;;;;16.90;6.13;;;;;;;;;;5053144;28;20440;-69
2022/06/04 00:55:57;;;;;;;18.60;6.30;;;;;;;;;;5053040;28;20452;-69
2022/06/04 00:58:32;;;;;;;18.23;5.67;;;;;;;;;;5053464;28;20451;-68
2022/06/04 01:01:05;;;;;;;21.30;7.10;;;;;;;;;;5053026;28;20439;-68
2022/06/04 01:03:43;;;;;;;19.67;7.07;;;;;;;;;;5052901;28;20482;-68
2022/06/04 01:06:16;;;;;;;21.83;6.50;;;;;;;;;;5052898;28;20451;-68
2022/06/04 01:08:58;;;;;;;22.83;6.67;;;;;;;;;;5053196;28;20463;-69
2022/06/04 01:11:34;;;;;;;18.40;6.10;;;;;;;;;;5052804;28;20828;-68
2022/06/04 01:14:12;;;;;;;18.00;6.40;;;;;;;;;;5053581;28;20439;-68
2022/06/04 01:16:45;;;;;;;22.00;6.03;;;;;;;;;;5052654;28;20456;-68
2022/06/04 01:19:32;;;;;;;19.80;6.67;;;;;;;;;;5052683;28;21030;-69
2022/06/04 01:22:06;;;;;;;16.43;5.70;;;;;;;;;;5052622;28;20431;-68
2022/06/04 01:24:43;;;;;;;20.23;6.60;;;;;;;;;;5053065;28;20478;-69
2022/06/04 01:27:14;;;;;;;18.67;6.27;;;;;;;;;;5052289;28;20443;-68
2022/06/04 01:29:45;;;;;;;18.80;6.03;;;;;;;;;;5052862;28;20448;-68
2022/06/04 01:32:17;;;;;;;18.10;5.67;;;;;;;;;;5052540;28;20452;-68
2022/06/04 01:34:46;;;;;;;18.40;6.50;;;;;;;;;;5052515;28;20443;-68
2022/06/04 01:37:16;;;;;;;20.20;6.00;;;;;;;;;;5052345;28;20475;-68
2022/06/04 01:42:35;;;;;;;19.60;5.90;;;;;;;;;;5052419;28;20499;-68
2022/06/04 01:45:03;;;;;;;18.93;7.47;;;;;;;;;;5051908;28;20452;-68
2022/06/04 01:47:32;;;;;;;19.33;6.37;;;;;;;;;;5052080;28;20452;-68
2022/06/04 01:50:00;;;;;;;18.27;6.00;;;;;;;;;;5051830;28;20444;-69
2022/06/04 01:52:28;;;;;;;30.63;7.30;;;;;;;;;;5051985;28;20448;-68
2022/06/04 01:54:58;;;;;;;16.97;6.47;;;;;;;;;;5051850;28;20444;-68
2022/06/04 01:57:28;;;;;;;17.93;5.53;;;;;;;;;;5051996;28;20439;-68
2022/06/04 01:59:59;;;;;;;23.10;6.00;;;;;;;;;;5052427;28;20447;-68
2022/06/04 02:02:30;;;;;;;23.23;7.50;;;;;;;;;;5052485;28;20805;-68
2022/06/04 02:04:59;;;;;;;20.50;6.70;;;;;;;;;;5052142;28;20827;-68
2022/06/04 02:07:31;;;;;;;20.20;6.77;;;;;;;;;;5051930;28;20444;-68
2022/06/04 02:10:02;;;;;;;20.33;6.90;;;;;;;;;;5051814;28;20973;-68
2022/06/04 02:12:33;;;;;;;22.90;7.37;;;;;;;;;;5051977;28;20458;-68
2022/06/04 02:15:04;;;;;;;24.70;7.30;;;;;;;;;;5051710;28;20456;-69
2022/06/04 02:17:33;;;;;;;23.70;6.37;;;;;;;;;;5051818;28;20443;-69
2022/06/04 02:20:00;;;;;;;23.10;6.60;;;;;;;;;;5051707;28;20494;-68
2022/06/04 02:22:28;;;;;;;18.93;6.40;;;;;;;;;;5051616;28;20814;-68
2022/06/04 02:24:55;;;;;;;24.53;6.33;;;;;;;;;;5051749;28;20467;-68
2022/06/04 02:27:23;;;;;;;18.60;5.80;;;;;;;;;;5051943;28;20443;-69
2022/06/04 02:29:50;;;;;;;20.07;6.73;;;;;;;;;;5051986;28;20440;-68
2022/06/04 02:32:23;;;;;;;21.77;6.57;;;;;;;;;;5051646;28;20450;-68
2022/06/04 02:34:57;;;;;;;29.10;7.67;;;;;;;;;;5051560;28;20447;-68
2022/06/04 02:37:28;;;;;;;19.73;6.40;;;;;;;;;;5051686;28;20440;-69
2022/06/04 02:39:58;;;;;;;17.60;5.50;;;;;;;;;;5051778;28;20440;-68
2022/06/04 02:42:32;;;;;;;21.10;5.70;;;;;;;;;;5051765;28;20443;-69
2022/06/04 02:45:02;;;;;;;25.00;6.77;;;;;;;;;;5051417;28;20442;-68
2022/06/04 02:47:35;;;;;;;19.20;5.77;;;;;;;;;;5051404;28;20458;-68
2022/06/04 02:50:04;;;;;;;18.93;6.20;;;;;;;;;;5052102;28;20531;-68
2022/06/04 02:52:32;;;;;;;19.73;6.33;;;;;;;;;;5051533;28;20443;-68
2022/06/04 02:55:02;;;;;;;17.07;6.20;;;;;;;;;;5051434;28;20521;-68
2022/06/04 02:57:32;;;;;;;18.30;5.00;;;;;;;;;;5051338;28;20443;-68
2022/06/04 03:00:01;;;;;;;16.97;6.67;;;;;;;;;;5051350;28;20444;-68
2022/06/04 03:02:30;;;;;;;18.33;5.80;;;;;;;;;;5055410;28;20479;-69
2022/06/04 03:05:06;;;;;;;21.30;6.00;;;;;;;;;;5055380;28;20486;-69
2022/06/04 03:07:34;;;;;;;22.00;6.10;;;;;;;;;;5055293;28;20438;-68
2022/06/04 03:10:06;;;;;;;20.00;5.83;;;;;;;;;;5055302;28;20446;-69
2022/06/04 03:12:34;;;;;;;18.60;5.90;;;;;;;;;;5055230;28;20447;-68
2022/06/04 03:15:02;;;;;;;23.03;7.40;;;;;;;;;;5054509;28;20463;-68
2022/06/04 03:17:30;;;;;;;19.67;6.67;;;;;;;;;;5055133;28;20890;-69
2022/06/04 03:19:58;;;;;;;16.67;5.23;;;;;;;;;;5055353;28;20448;-68
2022/06/04 03:22:26;;;;;;;18.40;6.53;;;;;;;;;;5054979;28;20455;-68
2022/06/04 03:24:53;;;;;;;24.33;6.77;;;;;;;;;;5054779;28;20590;-69
2022/06/04 03:27:21;;;;;;;17.57;6.33;;;;;;;;;;5054946;28;20447;-69
2022/06/04 03:29:49;;;;;;;19.27;6.13;;;;;;;;;;5055343;28;20440;-68
2022/06/04 03:32:16;;;;;;;18.30;6.30;;;;;;;;;;5055031;28;20836;-68
2022/06/04 03:34:43;;;;;;;18.10;5.57;;;;;;;;;;5054688;28;20459;-68
2022/06/04 03:37:12;;;;;;;18.27;7.00;;;;;;;;;;5054286;28;20447;-69
2022/06/04 03:39:40;;;;;;;21.83;7.23;;;;;;;;;;5054651;28;20456;-68
2022/06/04 03:42:07;;;;;;;23.83;6.80;;;;;;;;;;5055097;28;20439;-69
2022/06/04 03:44:35;;;;;;;27.13;6.90;;;;;;;;;;5054723;28;20510;-68
2022/06/04 03:47:02;;;;;;;18.33;7.00;;;;;;;;;;5054452;28;20440;-69
2022/06/04 03:49:31;;;;;;;20.03;6.93;;;;;;;;;;5054317;28;20440;-68
2022/06/04 03:51:59;;;;;;;16.77;5.50;;;;;;;;;;5054402;28;20997;-68
2022/06/04 03:59:54;;;;;;;16.77;6.30;;;;;;;;;;5054354;28;20858;-69
2022/06/04 04:02:22;;;;;;;23.23;8.80;;;;;;;;;;5054008;28;20446;-69
2022/06/04 04:04:50;;;;;;;29.27;11.27;;;;;;;;;;5053929;28;20999;-68
2022/06/04 04:07:17;;;;;;;26.00;10.90;;;;;;;;;;5054048;28;20505;-69
2022/06/04 04:09:46;;;;;;;27.97;11.90;;;;;;;;;;5054129;28;20438;-70
2022/06/04 04:12:13;;;;;;;24.87;10.87;;;;;;;;;;5053955;28;20823;-69
2022/06/04 04:14:40;;;;;;;29.77;11.60;;;;;;;;;;5053591;28;20448;-69
2022/06/04 04:17:08;;;;;;;29.70;13.67;;;;;;;;;;5053518;28;20444;-69
2022/06/04 04:19:36;;;;;;;28.97;12.80;;;;;;;;;;5053843;28;20444;-70
2022/06/04 04:22:03;;;;;;;26.77;12.17;;;;;;;;;;5053924;28;20436;-70
2022/06/04 04:24:31;;;;;;;23.17;7.93;;;;;;;;;;5053756;28;20492;-70
2022/06/04 04:27:00;;;;;;;20.93;7.77;;;;;;;;;;5053605;28;20446;-69
2022/06/04 04:29:27;;;;;;;23.30;8.90;;;;;;;;;;5053560;28;20819;-70
2022/06/04 04:31:55;;;;;;;17.77;6.63;;;;;;;;;;5053796;28;21071;-69
2022/06/04 04:34:22;;;;;;;19.30;7.20;;;;;;;;;;5053486;28;20526;-70
2022/06/04 04:36:50;;;;;;;19.77;5.93;;;;;;;;;;5053569;28;20447;-70
2022/06/04 04:39:17;;;;;;;17.70;5.30;;;;;;;;;;5053258;28;20451;-70
2022/06/04 04:41:45;;;;;;;18.63;5.70;;;;;;;;;;5053684;28;20444;-70
2022/06/04 04:44:13;;;;;;;16.73;5.40;;;;;;;;;;5053270;28;20486;-70
2022/06/04 04:46:41;;;;;;;19.20;5.87;;;;;;;;;;5053607;28;20428;-70
2022/06/04 04:49:08;;;;;;;16.40;5.40;;;;;;;;;;5052988;28;20440;-70
2022/06/04 04:51:36;;;;;;;19.13;7.40;;;;;;;;;;5053684;28;20807;-69
2022/06/04 04:54:04;;;;;;;20.17;7.13;;;;;;;;;;5053306;28;20444;-70
2022/06/04 04:56:31;;;;;;;17.70;6.63;;;;;;;;;;5053018;28;20444;-69
2022/06/04 04:58:59;;;;;;;19.90;6.60;;;;;;;;;;5053102;28;20448;-69
2022/06/04 05:01:28;;;;;;;23.03;8.13;;;;;;;;;;5052997;28;20448;-70
2022/06/04 05:03:56;;;;;;;23.33;8.00;;;;;;;;;;5052847;28;20487;-70
2022/06/04 05:06:23;;;;;;;19.03;7.27;;;;;;;;;;5052843;28;20447;-70
2022/06/04 05:08:52;;;;;;;18.80;6.90;;;;;;;;;;5052933;28;20466;-70
2022/06/04 05:11:21;;;;;;;21.20;7.90;;;;;;;;;;5052753;28;20456;-70
2022/06/04 05:13:49;;;;;;;18.77;7.20;;;;;;;;;;5052947;28;21030;-69
2022/06/04 05:16:17;;;;;;;16.97;6.30;;;;;;;;;;5052499;28;21026;-70
2022/06/04 05:18:46;;;;;;;20.03;6.40;;;;;;;;;;5053044;28;20451;-70
2022/06/04 05:21:19;;;;;;;17.90;6.10;;;;;;;;;;5052598;28;20448;-69
2022/06/04 05:23:47;;;;;;;18.53;6.13;;;;;;;;;;5052028;28;20487;-70
2022/06/04 05:26:15;;;;;;;17.47;5.87;;;;;;;;;;5052947;28;20447;-70
2022/06/04 05:28:43;;;;;;;16.27;5.87;;;;;;;;;;5052654;28;20440;-72
2022/06/04 05:31:11;;;;;;;17.40;6.63;;;;;;;;;;5052163;28;20440;-68
2022/06/04 05:33:38;;;;;;;18.30;6.23;;;;;;;;;;5052717;28;20450;-68
2022/06/04 05:36:08;;;;;;;16.27;5.70;;;;;;;;;;5052355;28;20432;-69
2022/06/04 05:38:36;;;;;;;16.80;6.03;;;;;;;;;;5052820;28;20467;-68
2022/06/04 05:41:05;;;;;;;18.33;6.40;;;;;;;;;;5052314;28;20432;-68
2022/06/04 05:43:33;;;;;;;17.90;5.53;;;;;;;;;;5053034;28;20870;-68
2022/06/04 05:46:01;;;;;;;15.23;5.27;;;;;;;;;;5052518;28;20447;-69
2022/06/04 05:48:29;;;;;;;17.07;6.37;;;;;;;;;;5052223;28;20439;-69
2022/06/04 05:50:58;;;;;;;17.00;6.33;;;;;;;;;;5051838;28;20448;-68
2022/06/04 05:53:27;;;;;;;18.30;5.80;;;;;;;;;;5052038;28;20979;-68
2022/06/04 05:55:54;;;;;;;25.13;5.80;;;;;;;;;;5052237;28;20448;-68
2022/06/04 05:58:22;;;;;;;17.30;5.77;;;;;;;;;;5052299;28;20443;-69
2022/06/04 06:00:49;;;;;;;16.07;5.53;;;;;;;;;;5052119;28;20438;-68
2022/06/04 06:03:17;;;;;;;19.40;5.30;;;;;;;;;;5051729;28;20436;-68
2022/06/04 06:05:45;;;;;;;15.57;5.30;;;;;;;;;;5051931;28;20507;-68
2022/06/04 06:08:13;;;;;;;16.57;6.03;;;;;;;;;;5052101;28;20448;-69
2022/06/04 06:10:43;;;;;;;14.67;4.87;;;;;;;;;;5052012;28;20451;-68
2022/06/04 06:24:03;;;;;;;17.30;5.77;;;;;;;;;;5040926;27;2553482;-69
2022/06/04 06:26:31;;;;;;;18.03;6.40;;;;;;;;;;5109648;28;20203;-68
2022/06/04 06:29:00;;;;;;;15.80;5.73;;;;;;;;;;5109733;28;20460;-68
2022/06/04 06:31:29;;;;;;;15.60;4.70;;;;;;;;;;5109366;28;20867;-68
2022/06/04 06:33:56;;;;;;;17.93;4.93;;;;;;;;;;5109276;28;20441;-68
2022/06/04 06:36:24;;;;;;;17.97;5.63;;;;;;;;;;5109326;28;20452;-69
2022/06/04 06:38:52;;;;;;;14.30;4.53;;;;;;;;;;5109389;28;20441;-68
2022/06/04 06:41:23;;;;;;;17.27;5.40;;;;;;;;;;5109741;28;20433;-69
2022/06/04 06:43:50;;;;;;;16.13;5.43;;;;;;;;;;5109153;28;20441;-68
2022/06/04 06:46:19;;;;;;;14.97;4.70;;;;;;;;;;5108186;28;20437;-68
2022/06/04 06:48:48;;;;;;;15.60;5.40;;;;;;;;;;5108360;28;20434;-69
2022/06/04 06:51:17;;;;;;;14.47;5.00;;;;;;;;;;5108067;28;20441;-68
2022/06/04 06:53:45;;;;;;;16.30;5.53;;;;;;;;;;5107990;28;20453;-69
2022/06/04 06:56:13;;;;;;;18.43;5.50;;;;;;;;;;5107944;28;20433;-69
2022/06/04 06:58:42;;;;;;;17.83;5.40;;;;;;;;;;5108002;28;20437;-70
2022/06/04 07:01:11;;;;;;;18.83;5.47;;;;;;;;;;5108128;28;20453;-69
2022/06/04 07:03:39;;;;;;;17.60;5.93;;;;;;;;;;5107629;28;20449;-69
2022/06/04 07:06:08;;;;;;;17.13;5.53;;;;;;;;;;5107732;28;20953;-69
2022/06/04 07:08:35;;;;;;;14.93;5.37;;;;;;;;;;5107614;28;20437;-69
2022/06/04 07:11:03;;;;;;;22.40;6.13;;;;;;;;;;5107585;28;20441;-70
2022/06/04 07:13:30;;;;;;;15.03;5.57;;;;;;;;;;5089513;28;20478;-72
2022/06/04 07:16:00;;;;;;;16.80;5.40;;;;;;;;;;5087507;28;20446;-70
2022/06/04 07:18:27;;;;;;;22.30;5.50;;;;;;;;;;5087363;28;20458;-69
2022/06/04 07:20:55;;;;;;;15.97;5.80;;;;;;;;;;5087160;28;20442;-70
2022/06/04 07:23:23;;;;;;;16.13;5.87;;;;;;;;;;5082411;28;20543;-71
2022/06/04 07:25:50;;;;;;;16.10;5.60;;;;;;;;;;5073421;28;20434;-69
2022/06/04 07:28:18;;;;;;;17.10;5.50;;;;;;;;;;5073838;28;20990;-69
2022/06/04 07:30:45;;;;;;;16.73;5.60;;;;;;;;;;5073699;28;20847;-69
2022/06/04 07:33:14;;;;;;;16.47;5.83;;;;;;;;;;5073579;28;20507;-69
2022/06/04 07:35:47;;;;;;;18.57;7.13;;;;;;;;;;5073222;28;20943;-69
2022/06/04 07:38:14;;;;;;;16.07;5.53;;;;;;;;;;5073678;28;20502;-70
2022/06/04 07:40:42;;;;;;;15.40;5.53;;;;;;;;;;5073574;28;20439;-69
2022/06/04 07:43:09;;;;;;;15.93;5.60;;;;;;;;;;5073252;28;20465;-69
2022/06/04 07:45:36;;;;;;;16.50;5.33;;;;;;;;;;5073124;28;20453;-69
2022/06/04 07:48:05;;;;;;;16.70;5.10;;;;;;;;;;5073438;28;20449;-69
2022/06/04 07:50:35;;;;;;;16.67;5.40;;;;;;;;;;5073204;28;20439;-69
2022/06/04 07:53:03;;;;;;;15.97;5.20;;;;;;;;;;5073341;28;20489;-69
2022/06/04 07:55:30;;;;;;;20.20;6.93;;;;;;;;;;5072957;28;20450;-69
2022/06/04 07:57:58;;;;;;;15.40;5.33;;;;;;;;;;5073066;28;20970;-69
2022/06/04 08:00:25;;;;;;;16.30;4.90;;;;;;;;;;5073110;28;20455;-69
2022/06/04 08:02:53;;;;;;;15.80;4.77;;;;;;;;;;5072896;28;20453;-69
2022/06/04 08:05:21;;;;;;;17.80;4.77;;;;;;;;;;5073223;28;20526;-69
2022/06/04 08:07:51;;;;;;;15.50;4.50;;;;;;;;;;5072971;28;20887;-69
2022/06/04 08:10:19;;;;;;;21.33;5.17;;;;;;;;;;5072785;28;20454;-69
2022/06/04 08:12:47;;;;;;;16.50;5.10;;;;;;;;;;5072616;28;20506;-69
2022/06/04 08:15:15;;;;;;;16.10;5.50;;;;;;;;;;5072706;28;20446;-69
2022/06/04 08:17:42;;;;;;;17.73;5.70;;;;;;;;;;5072463;28;20500;-69
2022/06/04 08:20:11;;;;;;;15.67;4.40;;;;;;;;;;5072611;28;20443;-69
2022/06/04 08:22:38;;;;;;;19.40;5.30;;;;;;;;;;5072679;28;21057;-70
2022/06/04 08:25:10;;;;;;;22.10;5.60;;;;;;;;;;5072678;28;20462;-69
2022/06/04 08:27:38;;;;;;;16.90;5.57;;;;;;;;;;5072383;28;20454;-69
2022/06/04 08:30:08;;;;;;;21.10;5.67;;;;;;;;;;5072342;28;20951;-69
2022/06/04 08:32:35;;;;;;;17.67;5.57;;;;;;;;;;5072575;28;20487;-69
2022/06/04 08:35:02;;;;;;;16.50;5.13;;;;;;;;;;5071687;28;20500;-69
2022/06/04 08:37:30;;;;;;;17.90;5.20;;;;;;;;;;5072123;28;20451;-70
2022/06/04 08:39:59;;;;;;;15.40;4.63;;;;;;;;;;5072284;28;20442;-69
2022/06/04 08:42:38;;;;;;;16.77;4.50;;;;;;;;;;5072240;28;20447;-69
2022/06/04 08:45:05;;;;;;;15.10;4.93;;;;;;;;;;5072481;28;20442;-69
2022/06/04 08:47:34;;;;;;;17.23;5.03;;;;;;;;;;5071824;28;20462;-69
2022/06/04 08:50:06;;;;;;;15.97;4.67;;;;;;;;;;5072106;28;20434;-69
2022/06/04 08:52:35;;;;;;;17.53;5.50;;;;;;;;;;5071919;28;20501;-70
2022/06/04 08:58:01;;;;;;;16.93;5.10;;;;;;;;;;5071424;28;20434;-69
2022/06/04 09:00:32;;;;;;;18.53;4.97;;;;;;;;;;5071938;28;21172;-69
2022/06/04 09:03:02;;;;;;;15.33;4.57;;;;;;;;;;5071192;28;20446;-71
2022/06/04 09:05:36;;;;;;;15.00;4.87;;;;;;;;;;5071455;28;20442;-72
2022/06/04 09:08:07;;;;;;;26.27;5.00;;;;;;;;;;5071697;28;20435;-69
2022/06/04 09:10:38;;;;;;;20.03;5.03;;;;;;;;;;5071430;28;20451;-69
2022/06/04 09:13:11;;;;;;;19.83;4.70;;;;;;;;;;5071153;28;20483;-68
2022/06/04 09:15:41;;;;;;;18.87;5.63;;;;;;;;;;5071237;28;20443;-70
2022/06/04 09:18:13;;;;;;;16.90;5.33;;;;;;;;;;5058487;28;20486;-70
2022/06/04 09:20:42;;;;;;;17.40;4.93;;;;;;;;;;5071180;28;20471;-73
2022/06/04 09:23:26;;;;;;;15.37;4.93;;;;;;;;;;5070541;28;21018;-73
2022/06/04 09:25:56;;;;;;;15.30;4.70;;;;;;;;;;5070580;28;20463;-71
2022/06/04 09:28:30;;;;;;;16.57;5.63;;;;;;;;;;5070057;28;21015;-70
2022/06/04 09:31:03;;;;;;;16.00;5.60;;;;;;;;;;5070245;28;20482;-71
2022/06/04 09:33:40;;;;;;;15.17;4.53;;;;;;;;;;5070190;28;20585;-70
2022/06/04 09:36:11;;;;;;;15.30;4.47;;;;;;;;;;5070876;28;20474;-71
2022/06/04 09:38:39;;;;;;;14.80;5.03;;;;;;;;;;5070760;28;20474;-69
2022/06/04 09:41:18;;;;;;;14.97;4.80;;;;;;;;;;5070738;28;20473;-71
2022/06/04 09:43:47;;;;;;;18.20;4.77;;;;;;;;;;5070530;28;21007;-70
2022/06/04 09:46:15;;;;;;;14.80;4.87;;;;;;;;;;5070069;28;20467;-70
2022/06/04 09:48:45;;;;;;;14.77;4.40;;;;;;;;;;5070412;28;20467;-71
2022/06/04 09:51:17;;;;;;;15.47;4.50;;;;;;;;;;5069949;28;20482;-71
2022/06/04 09:53:46;;;;;;;15.53;4.40;;;;;;;;;;5069817;28;20490;-69
2022/06/04 09:56:15;;;;;;;18.70;5.03;;;;;;;;;;5069982;28;21052;-69
2022/06/04 09:58:43;;;;;;;15.20;4.70;;;;;;;;;;5069717;28;21078;-70
2022/06/04 10:01:25;;;;;;;16.70;5.10;;;;;;;;;;5069686;28;20463;-70
2022/06/04 10:04:00;;;;;;;16.20;5.33;;;;;;;;;;5068995;28;20897;-71
2022/06/04 10:06:28;;;;;;;16.23;5.20;;;;;;;;;;5068360;28;20489;-71
2022/06/04 10:11:50;;;;;;;17.57;5.73;;;;;;;;;;5068718;28;20470;-70
2022/06/04 10:14:16;;;;;;;14.77;5.17;;;;;;;;;;5070005;28;20504;-70
2022/06/04 10:16:46;;;;;;;14.93;4.60;;;;;;;;;;5069940;28;20571;-70
2022/06/04 10:19:17;;;;;;;15.80;4.57;;;;;;;;;;5070498;28;20481;-72
2022/06/04 10:21:49;;;;;;;15.80;5.00;;;;;;;;;;5070176;28;21010;-70
2022/06/04 10:24:21;;;;;;;14.67;4.70;;;;;;;;;;5069861;28;20478;-71
2022/06/04 10:26:56;;;;;;;16.67;5.40;;;;;;;;;;5067654;28;21121;-72
2022/06/04 10:29:41;;;;;;;15.13;4.37;;;;;;;;;;5070398;28;20844;-72
2022/06/04 10:32:13;;;;;;;14.10;4.40;;;;;;;;;;5049619;28;20562;-70
2022/06/04 10:34:45;;;;;;;17.30;5.60;;;;;;;;;;5067070;28;20490;-70
2022/06/04 10:37:20;;;;;;;35.90;14.47;;;;;;;;;;5069590;28;21093;-71
2022/06/04 10:39:54;;;;;;;17.63;5.90;;;;;;;;;;5068347;28;20492;-71
2022/06/04 10:42:28;;;;;;;15.60;5.03;;;;;;;;;;5069395;28;20477;-72
2022/06/04 10:45:04;;;;;;;14.97;5.17;;;;;;;;;;5069780;28;20469;-72
2022/06/04 10:47:35;;;;;;;15.00;4.90;;;;;;;;;;5069529;28;20475;-73
2022/06/04 10:50:17;;;;;;;15.87;5.10;;;;;;;;;;5069892;28;20479;-72
2022/06/04 10:52:46;;;;;;;16.60;4.73;;;;;;;;;;5069609;28;20537;-75
2022/06/04 10:55:19;;;;;;;16.87;4.50;;;;;;;;;;5070121;28;20477;-74
2022/06/04 10:57:50;;;;;;;17.07;5.27;;;;;;;;;;5069757;28;21004;-74
2022/06/04 11:00:20;;;;;;;15.67;4.87;;;;;;;;;;5072742;28;20479;-73
2022/06/04 11:02:53;;;;;;;15.80;5.53;;;;;;;;;;5073626;28;20485;-71
2022/06/04 11:05:24;;;;;;;31.70;10.63;;;;;;;;;;5073605;28;20474;-71
2022/06/04 11:07:53;;;;;;;16.37;5.83;;;;;;;;;;5073378;28;20481;-72
2022/06/04 11:10:22;;;;;;;16.13;4.60;;;;;;;;;;5073532;28;21068;-71
2022/06/04 11:12:51;;;;;;;14.90;4.73;;;;;;;;;;5072886;28;20566;-72
2022/06/04 11:15:22;;;;;;;16.50;4.40;;;;;;;;;;5072923;28;20802;-73
2022/06/04 11:17:54;;;;;;;15.30;4.80;;;;;;;;;;5072965;28;20573;-76
2022/06/04 11:20:22;;;;;;;16.23;4.60;;;;;;;;;;5072730;28;20938;-74
2022/06/04 11:22:54;;;;;;;15.47;4.43;;;;;;;;;;5071842;28;20818;-75
2022/06/04 11:25:25;;;;;;;17.63;4.87;;;;;;;;;;5072578;28;20462;-75
2022/06/04 11:27:55;;;;;;;14.40;4.73;;;;;;;;;;5069701;28;20527;-76
2022/06/04 11:30:30;;;;;;;15.03;4.87;;;;;;;;;;5072307;28;20471;-75
2022/06/04 11:33:05;;;;;;;16.60;4.70;;;;;;;;;;5072932;28;20466;-75
2022/06/04 11:35:39;;;;;;;18.83;5.63;;;;;;;;;;5070264;28;20478;-75
2022/06/04 11:38:30;;;;;;;15.87;5.30;;;;;;;;;;5072869;28;20995;-75
2022/06/04 11:40:59;;;;;;;15.50;4.47;;;;;;;;;;5073003;28;20466;-74
2022/06/04 11:43:35;;;;;;;17.97;4.43;;;;;;;;;;5072858;28;20501;-74
2022/06/04 11:46:08;;;;;;;15.10;4.73;;;;;;;;;;5072602;28;20479;-74
2022/06/04 11:48:55;;;;;;;15.10;4.73;;;;;;;;;;5073151;28;20544;-74
2022/06/04 11:51:28;;;;;;;16.13;5.10;;;;;;;;;;5071249;28;20461;-74
2022/06/04 11:53:57;;;;;;;15.30;5.10;;;;;;;;;;5070803;28;20509;-74
2022/06/04 11:56:30;;;;;;;15.17;4.37;;;;;;;;;;5072153;28;20443;-74
2022/06/04 11:59:03;;;;;;;16.90;4.17;;;;;;;;;;5072586;28;20439;-74
2022/06/04 12:01:32;;;;;;;17.27;5.10;;;;;;;;;;5069819;28;20450;-74
2022/06/04 12:04:03;;;;;;;17.37;5.10;;;;;;;;;;5072487;28;21017;-75
2022/06/04 12:06:33;;;;;;;18.90;5.27;;;;;;;;;;5072454;28;20450;-74
2022/06/04 12:09:13;;;;;;;17.17;4.67;;;;;;;;;;5072762;28;20443;-74
2022/06/04 12:11:42;;;;;;;16.60;4.60;;;;;;;;;;5070699;28;20450;-72
2022/06/04 12:14:13;;;;;;;13.50;3.50;;;;;;;;;;5072640;28;20485;-72
2022/06/04 12:16:44;;;;;;;15.13;4.90;;;;;;;;;;5072779;28;20446;-72
2022/06/04 12:25:08;;;;;;;16.20;4.80;;;;;;;;;;5072678;28;20489;-72
2022/06/04 12:27:38;;;;;;;14.93;4.60;;;;;;;;;;5071937;28;20557;-74
2022/06/04 12:30:16;;;;;;;16.00;4.50;;;;;;;;;;5069803;28;20952;-73
2022/06/04 12:32:44;;;;;;;16.90;4.90;;;;;;;;;;5069395;28;20435;-72
2022/06/04 12:35:22;;;;;;;19.53;4.70;;;;;;;;;;5071882;28;20934;-72
2022/06/04 12:37:55;;;;;;;17.60;4.17;;;;;;;;;;5066915;28;20439;-72
2022/06/04 12:40:33;;;;;;;16.10;4.43;;;;;;;;;;5071822;28;20450;-71
2022/06/04 12:43:08;;;;;;;15.70;3.90;;;;;;;;;;5071931;28;20447;-72
2022/06/04 12:45:38;;;;;;;15.50;5.00;;;;;;;;;;5071421;28;20438;-72
2022/06/04 12:48:20;;;;;;;15.57;4.87;;;;;;;;;;5071627;28;20466;-72
2022/06/04 12:50:53;;;;;;;15.43;4.17;;;;;;;;;;5070318;28;20502;-71
2022/06/04 12:53:23;;;;;;;14.30;4.10;;;;;;;;;;5069287;28;20466;-70
2022/06/04 12:55:51;;;;;;;14.63;4.10;;;;;;;;;;5071071;28;20439;-70
2022/06/04 12:58:29;;;;;;;16.10;4.70;;;;;;;;;;5071501;28;20447;-70
2022/06/04 13:00:58;;;;;;;17.97;4.70;;;;;;;;;;5068950;28;20438;-70
2022/06/04 13:03:38;;;;;;;14.30;4.27;;;;;;;;;;5071581;28;20454;-71
2022/06/04 13:06:31;;;;;;;15.10;4.30;;;;;;;;;;5070007;28;20439;-71
2022/06/04 13:09:04;;;;;;;15.90;4.80;;;;;;;;;;5069084;28;20998;-74
2022/06/04 13:11:42;;;;;;;24.37;6.10;;;;;;;;;;5070867;28;20454;-72
2022/06/04 13:14:14;;;;;;;15.30;4.70;;;;;;;;;;5071304;28;20470;-71
2022/06/04 13:16:48;;;;;;;15.47;5.00;;;;;;;;;;5066549;28;20445;-71
2022/06/04 13:19:22;;;;;;;14.30;4.60;;;;;;;;;;5068321;28;20443;-71
2022/06/04 13:21:51;;;;;;;17.10;4.70;;;;;;;;;;5070160;28;20450;-70
2022/06/04 13:24:22;;;;;;;15.70;4.43;;;;;;;;;;5068851;28;20539;-73
2022/06/04 13:26:53;;;;;;;16.10;5.40;;;;;;;;;;5070827;28;20443;-69
2022/06/04 13:29:22;;;;;;;19.33;5.90;;;;;;;;;;5051555;28;20439;-71
2022/06/04 13:31:54;;;;;;;15.00;4.70;;;;;;;;;;5051062;28;20448;-71
2022/06/04 13:34:23;;;;;;;15.00;4.80;;;;;;;;;;5051113;28;20537;-71
2022/06/04 13:36:51;;;;;;;14.83;4.73;;;;;;;;;;5051493;28;20439;-71
2022/06/04 13:39:20;;;;;;;23.17;4.37;;;;;;;;;;5051159;28;20448;-71
2022/06/04 13:42:05;;;;;;;16.73;4.87;;;;;;;;;;5050947;28;20526;-72
2022/06/04 13:44:34;;;;;;;16.30;4.60;;;;;;;;;;5062114;28;20450;-71
2022/06/04 13:47:08;;;;;;;16.60;5.53;;;;;;;;;;5071006;28;20453;-71
2022/06/04 13:49:36;;;;;;;15.50;4.50;;;;;;;;;;5071020;28;20439;-71
2022/06/04 13:52:10;;;;;;;16.87;4.93;;;;;;;;;;5070344;28;20939;-71
2022/06/04 13:54:41;;;;;;;17.67;4.77;;;;;;;;;;5068995;28;20571;-74
2022/06/04 13:57:15;;;;;;;17.90;4.50;;;;;;;;;;5071015;28;20443;-74
2022/06/04 13:59:44;;;;;;;16.53;5.40;;;;;;;;;;5070744;28;20443;-72
2022/06/04 14:02:15;;;;;;;20.73;5.33;;;;;;;;;;5066635;28;20474;-68
2022/06/04 14:07:33;;;;;;;17.93;4.30;;;;;;;;;;5060910;28;20946;-72
2022/06/04 14:10:02;;;;;;;14.80;4.30;;;;;;;;;;5070126;28;20846;-72
2022/06/04 14:12:38;;;;;;;17.30;5.17;;;;;;;;;;5068703;28;20479;-75
2022/06/04 14:15:14;;;;;;;18.00;4.93;;;;;;;;;;5061389;28;20870;-71
2022/06/04 14:17:50;;;;;;;19.10;5.00;;;;;;;;;;5058093;28;20466;-71
2022/06/04 14:20:23;;;;;;;13.77;4.43;;;;;;;;;;5070501;28;20470;-72
2022/06/04 14:22:59;;;;;;;19.70;4.60;;;;;;;;;;5069968;28;20486;-71
2022/06/04 14:25:37;;;;;;;9.40;2.83;;;;;;;;;;5070353;28;20478;-71
2022/06/04 14:28:10;;;;;;;17.80;5.47;;;;;;;;;;5069909;28;20473;-71
2022/06/04 14:30:42;;;;;;;15.80;4.90;;;;;;;;;;5070345;28;20475;-71
2022/06/04 14:33:18;;;;;;;14.10;4.43;;;;;;;;;;5069369;28;20475;-71
2022/06/04 14:35:56;;;;;;;20.63;4.97;;;;;;;;;;5066198;28;20502;-70
2022/06/04 14:38:25;;;;;;;15.53;4.90;;;;;;;;;;5073207;28;20475;-71
2022/06/04 14:41:00;;;;;;;18.17;4.77;;;;;;;;;;5073700;28;20930;-71
2022/06/04 14:43:37;;;;;;;17.00;4.50;;;;;;;;;;5060760;28;20475;-70
2022/06/04 14:46:11;;;;;;;15.03;4.77;;;;;;;;;;5074119;28;20482;-70
2022/06/04 14:48:49;;;;;;;16.33;5.13;;;;;;;;;;5073740;28;20474;-70
2022/06/04 14:51:32;;;;;;;17.57;5.00;;;;;;;;;;5072696;28;20561;-70
2022/06/04 14:54:03;;;;;;;14.47;4.13;;;;;;;;;;5059038;28;20490;-69
2022/06/04 14:56:50;;;;;;;16.53;4.40;;;;;;;;;;5073191;28;20466;-71
2022/06/04 14:59:33;;;;;;;16.10;4.20;;;;;;;;;;5064873;28;20569;-71
2022/06/04 15:02:18;;;;;;;14.47;4.10;;;;;;;;;;5054224;28;20475;-71
2022/06/04 15:05:01;;;;;;;15.60;4.20;;;;;;;;;;5072650;28;20479;-70
2022/06/04 15:07:38;;;;;;;15.60;4.10;;;;;;;;;;5073184;28;20486;-72
2022/06/04 15:10:12;;;;;;;14.27;4.57;;;;;;;;;;5073664;28;20535;-71
2022/06/04 15:12:48;;;;;;;15.93;4.93;;;;;;;;;;5072899;28;20481;-77
2022/06/04 15:15:19;;;;;;;14.33;4.23;;;;;;;;;;5073337;28;20498;-72
2022/06/04 15:17:58;;;;;;;15.80;4.83;;;;;;;;;;5072620;28;20481;-72
2022/06/04 15:20:32;;;;;;;14.97;4.83;;;;;;;;;;5073144;28;20482;-72
2022/06/04 15:23:06;;;;;;;15.77;4.67;;;;;;;;;;5071938;28;20500;-72
2022/06/04 15:25:41;;;;;;;16.77;5.00;;;;;;;;;;5073100;28;20478;-71
2022/06/04 15:33:52;;;;;;;17.83;5.47;;;;;;;;;;5072774;28;20474;-72